createdAt,value
2023-04-23T00:02:55.479Z,8.75
2023-04-23T00:08:00.634Z,12.32
2023-04-23T00:13:04.627Z,10.84
2023-04-23T00:18:08.124Z,8.87
2023-04-23T00:23:11.137Z,7.72
2023-04-23T00:28:13.904Z,6.92
2023-04-23T00:33:16.818Z,9.16
2023-04-23T00:38:21.225Z,12.16
2023-04-23T00:43:24.188Z,10.24
2023-04-23T00:48:29.123Z,8.42
2023-04-23T00:53:33.593Z,7.33
2023-04-23T00:58:36.807Z,8.45
2023-04-23T01:03:43.048Z,12.12
2023-04-23T01:08:47.760Z,10.58
2023-04-23T01:13:50.768Z,8.64
2023-04-23T01:18:53.965Z,7.50
2023-04-23T01:23:56.744Z,8.40
2023-04-23T01:29:01.343Z,11.90
2023-04-23T01:34:04.631Z,10.23
2023-04-23T01:39:09.122Z,8.37
2023-04-23T01:44:12.298Z,7.24
2023-04-23T01:49:15.735Z,8.45
2023-04-23T01:54:18.565Z,11.90
2023-04-23T01:59:24.402Z,10.19
2023-04-23T02:04:28.226Z,8.29
2023-04-23T02:09:31.160Z,7.15
2023-04-23T02:14:34.053Z,7.93
2023-04-23T02:19:36.851Z,11.67
2023-04-23T02:24:42.254Z,10.22
2023-04-23T02:29:46.716Z,8.25
2023-04-23T02:34:49.481Z,7.10
2023-04-23T02:39:52.256Z,7.60
2023-04-23T02:44:54.996Z,11.42
2023-04-23T02:49:59.321Z,10.12
2023-04-23T02:55:05.277Z,8.08
2023-04-23T03:00:09.670Z,6.92
2023-04-23T03:05:12.806Z,8.04
2023-04-23T03:10:15.736Z,11.50
2023-04-23T03:15:18.821Z,9.71
2023-04-23T03:20:21.936Z,7.85
2023-04-23T03:25:25.902Z,6.78
2023-04-23T03:30:29.801Z,6.03
2023-04-23T03:35:32.738Z,7.51
2023-04-23T03:40:35.894Z,11.53
2023-04-23T03:45:38.661Z,10.29
2023-04-23T03:50:41.495Z,8.39
2023-04-23T03:55:44.957Z,7.40
2023-04-23T04:00:47.822Z,6.82
2023-04-23T04:05:50.665Z,8.32
2023-04-23T04:10:53.659Z,12.16
2023-04-23T04:15:56.603Z,10.75
2023-04-23T04:20:59.793Z,9.37
2023-04-23T04:26:02.801Z,8.88
2023-04-23T04:31:06.911Z,8.63
2023-04-23T04:36:09.889Z,8.49
2023-04-23T04:41:13.288Z,8.40
2023-04-23T04:46:16.277Z,8.37
2023-04-23T04:51:20.375Z,11.45
2023-04-23T04:56:24.166Z,14.00
2023-04-23T05:01:29.074Z,13.26
2023-04-23T05:06:32.471Z,14.37
2023-04-23T05:11:36.044Z,15.65
2023-04-23T05:16:38.918Z,17.09
2023-04-23T05:21:42.683Z,18.31
2023-04-23T05:26:45.587Z,19.49
2023-04-23T05:31:51.853Z,19.93
2023-04-23T05:36:54.756Z,20.54
2023-04-23T05:41:58.155Z,21.65
2023-04-23T05:47:01.072Z,22.56
2023-04-23T05:52:04.036Z,23.61
2023-04-23T05:57:07.114Z,24.57
2023-04-23T06:02:11.241Z,25.40
2023-04-23T06:07:15.319Z,26.45
2023-04-23T06:12:18.493Z,27.20
2023-04-23T06:17:21.393Z,27.92
2023-04-23T06:22:24.266Z,28.20
2023-04-23T06:27:27.298Z,28.66
2023-04-23T06:32:30.137Z,29.12
2023-04-23T06:37:32.990Z,28.83
2023-04-23T06:42:35.958Z,28.95
2023-04-23T06:47:38.763Z,29.25
2023-04-23T06:52:41.963Z,29.49
2023-04-23T06:57:44.917Z,29.63
2023-04-23T07:02:47.924Z,29.55
2023-04-23T07:07:50.978Z,29.17
2023-04-23T07:12:53.745Z,29.41
2023-04-23T07:17:56.804Z,29.67
2023-04-23T07:22:59.904Z,30.00
2023-04-23T07:28:02.835Z,30.41
2023-04-23T07:33:06.162Z,30.21
2023-04-23T07:38:09.139Z,30.48
2023-04-23T07:43:12.484Z,30.75
2023-04-23T07:48:15.363Z,30.88
2023-04-23T07:53:18.334Z,30.45
2023-04-23T07:58:21.343Z,30.02
2023-04-23T08:03:24.650Z,30.09
2023-04-23T08:08:27.701Z,30.34
2023-04-23T08:13:30.641Z,30.12
2023-04-23T08:18:33.523Z,30.23
2023-04-23T08:23:36.323Z,30.37
2023-04-23T08:28:39.131Z,30.28
2023-04-23T08:33:42.044Z,30.18
2023-04-23T08:38:44.883Z,30.23
2023-04-23T08:44:14.675Z,30.00
2023-04-23T08:49:18.907Z,29.96
2023-04-23T08:54:28.066Z,29.90
2023-04-23T08:59:32.114Z,30.02
2023-04-23T09:04:36.470Z,29.89
2023-04-23T09:09:41.059Z,29.92
2023-04-23T09:14:45.143Z,30.06
2023-04-23T09:19:51.100Z,29.71
2023-04-23T09:24:54.584Z,29.51
2023-04-23T09:29:59.597Z,29.66
2023-04-23T09:35:07.911Z,29.96
2023-04-23T09:40:18.559Z,30.15
2023-04-23T09:45:22.141Z,30.14
2023-04-23T09:50:40.009Z,30.21
2023-04-23T09:55:45.014Z,30.03
2023-04-23T10:00:48.655Z,30.30
2023-04-23T10:06:01.958Z,30.39
2023-04-23T10:11:19.839Z,30.06
2023-04-23T10:16:26.886Z,29.64
2023-04-23T10:21:46.279Z,29.55
2023-04-23T10:26:59.812Z,29.51
2023-04-23T10:32:07.206Z,29.14
2023-04-23T10:37:12.037Z,29.27
2023-04-23T10:42:16.908Z,29.44
2023-04-23T10:47:22.603Z,29.39
2023-04-23T10:52:26.281Z,29.25
2023-04-23T10:57:29.277Z,29.60
2023-04-23T11:02:44.985Z,29.68
2023-04-23T11:08:18.953Z,29.39
2023-04-23T11:13:28.194Z,29.12
2023-04-23T11:18:30.982Z,29.08
2023-04-23T11:23:34.034Z,29.15
2023-04-23T11:28:39.745Z,29.15
2023-04-23T11:33:42.791Z,29.28
2023-04-23T11:38:46.218Z,29.63
2023-04-23T11:43:49.039Z,29.82
2023-04-23T11:48:52.077Z,29.42
2023-04-23T11:53:55.048Z,29.13
2023-04-23T11:59:05.363Z,29.18
2023-04-23T12:04:13.568Z,29.16
2023-04-23T12:09:21.193Z,29.12
2023-04-23T12:14:30.640Z,28.96
2023-04-23T12:19:33.673Z,28.57
2023-04-23T12:24:54.523Z,28.74
2023-04-23T12:30:02.234Z,28.72
2023-04-23T12:35:07.256Z,28.43
2023-04-23T12:40:11.096Z,28.15
2023-04-23T12:45:13.920Z,28.23
2023-04-23T12:50:16.986Z,28.24
2023-04-23T12:55:19.900Z,27.34
2023-04-23T13:00:23.426Z,26.31
2023-04-23T13:05:26.205Z,25.32
2023-04-23T13:10:31.022Z,24.60
2023-04-23T13:15:34.060Z,24.15
2023-04-23T13:20:36.888Z,23.80
2023-04-23T13:25:39.724Z,23.74
2023-04-23T13:30:42.506Z,23.64
2023-04-23T13:35:45.311Z,23.35
2023-04-23T13:40:48.232Z,23.12
2023-04-23T13:45:54.239Z,23.01
2023-04-23T13:51:01.776Z,22.91
2023-04-23T13:56:04.956Z,22.97
2023-04-23T14:01:07.840Z,22.92
2023-04-23T14:06:11.123Z,22.76
2023-04-23T14:11:13.933Z,22.55
2023-04-23T14:16:17.608Z,22.18
2023-04-23T14:21:20.555Z,21.96
2023-04-23T14:26:49.439Z,22.04
2023-04-23T14:31:52.993Z,22.22
2023-04-23T14:36:55.955Z,22.20
2023-04-23T14:41:58.851Z,22.19
2023-04-23T14:47:02.344Z,22.24
2023-04-23T14:52:05.228Z,22.30
2023-04-23T14:57:08.152Z,22.27
2023-04-23T15:02:12.280Z,22.25
2023-04-23T15:07:15.367Z,22.18
2023-04-23T15:12:37.956Z,22.08
2023-04-23T15:17:41.528Z,21.96
2023-04-23T15:22:47.896Z,21.89
2023-04-23T15:27:57.679Z,21.86
2023-04-23T15:33:00.641Z,21.81
2023-04-23T15:38:03.835Z,21.72
2023-04-23T15:43:06.759Z,21.63
2023-04-23T15:48:10.096Z,21.52
2023-04-23T15:53:13.069Z,21.38
2023-04-23T15:58:15.931Z,21.28
2023-04-23T16:03:18.973Z,21.17
2023-04-23T16:08:22.165Z,21.09
2023-04-23T16:13:26.760Z,21.00
2023-04-23T16:18:29.650Z,20.93
2023-04-23T16:23:32.463Z,20.84
2023-04-23T16:28:35.628Z,20.75
2023-04-23T16:33:38.604Z,20.66
2023-04-23T16:38:44.945Z,20.55
2023-04-23T16:43:47.790Z,20.43
2023-04-23T16:48:50.620Z,20.30
2023-04-23T16:53:53.406Z,20.18
2023-04-23T16:58:56.527Z,20.04
2023-04-23T17:03:59.527Z,19.89
2023-04-23T17:09:05.333Z,19.74
2023-04-23T17:14:08.191Z,19.59
2023-04-23T17:19:11.665Z,19.42
2023-04-23T17:24:14.559Z,19.19
2023-04-23T17:29:17.420Z,18.97
2023-04-23T17:34:20.205Z,18.77
2023-04-23T17:39:23.808Z,18.56
2023-04-23T17:44:26.746Z,18.34
2023-04-23T17:49:29.614Z,18.14
2023-04-23T17:54:32.546Z,17.93
2023-04-23T17:59:35.795Z,17.73
2023-04-23T18:04:38.651Z,17.53
2023-04-23T18:09:41.429Z,17.35
2023-04-23T18:14:44.318Z,17.16
2023-04-23T18:19:48.967Z,16.99
2023-04-23T18:24:51.792Z,16.83
2023-04-23T18:29:57.626Z,16.68
2023-04-23T18:35:01.996Z,16.55
2023-04-23T18:40:06.908Z,16.50
2023-04-23T18:45:10.793Z,16.49
2023-04-23T18:50:50.099Z,16.48
2023-04-23T18:55:52.902Z,16.55
2023-04-23T19:00:56.527Z,16.56
2023-04-23T19:05:59.645Z,16.47
2023-04-23T19:11:03.790Z,16.30
2023-04-23T19:16:08.942Z,16.12
2023-04-23T19:21:12.206Z,15.90
2023-04-23T19:26:15.017Z,15.66
2023-04-23T19:31:17.977Z,15.47
2023-04-23T19:36:20.959Z,15.27
2023-04-23T19:41:23.783Z,15.10
2023-04-23T19:46:26.685Z,14.99
2023-04-23T19:51:35.501Z,14.88
2023-04-23T19:56:38.331Z,14.78
2023-04-23T20:01:45.560Z,14.68
2023-04-23T20:06:48.412Z,14.59
2023-04-23T20:11:52.829Z,14.49
2023-04-23T20:16:56.802Z,14.38
2023-04-23T20:21:59.610Z,14.30
2023-04-23T20:27:02.489Z,14.25
2023-04-23T20:32:05.729Z,14.22
2023-04-23T20:37:08.814Z,14.19
2023-04-23T20:42:12.075Z,14.17
2023-04-23T20:47:18.720Z,14.14
2023-04-23T20:52:21.653Z,14.11
2023-04-23T20:57:24.498Z,14.06
2023-04-23T21:02:27.500Z,13.99
2023-04-23T21:07:31.131Z,13.94
2023-04-23T21:12:34.041Z,13.89
2023-04-23T21:17:36.904Z,13.84
2023-04-23T21:22:39.802Z,13.76
2023-04-23T21:27:46.016Z,13.69
2023-04-23T21:32:52.218Z,13.62
2023-04-23T21:37:55.382Z,13.58
2023-04-23T21:42:58.211Z,13.56
2023-04-23T21:48:02.002Z,13.55
2023-04-23T21:53:06.959Z,13.54
2023-04-23T22:03:20.533Z,13.50
2023-04-23T22:08:40.484Z,13.48
2023-04-23T22:13:43.406Z,13.45
2023-04-23T22:18:46.175Z,13.41
2023-04-23T22:23:49.055Z,13.37
2023-04-23T22:28:52.306Z,14.59
2023-04-23T22:33:55.305Z,18.26
2023-04-23T22:38:58.503Z,17.17
2023-04-23T22:44:01.270Z,15.67
2023-04-23T22:49:07.754Z,14.81
2023-04-23T22:54:10.662Z,14.28
2023-04-23T22:59:13.699Z,13.91
2023-04-23T23:04:16.580Z,13.61
2023-04-23T23:09:19.466Z,13.39
2023-04-23T23:14:23.213Z,15.83
2023-04-23T23:19:28.282Z,18.01
2023-04-23T23:24:31.092Z,16.33
2023-04-23T23:29:34.216Z,15.27
2023-04-23T23:34:37.010Z,14.60
2023-04-23T23:39:40.000Z,14.07
2023-04-23T23:44:42.951Z,13.64
2023-04-23T23:49:45.883Z,13.29
2023-04-23T23:54:48.791Z,13.00
2023-04-23T23:59:51.567Z,12.76
